createdAt,value
2022-09-06T00:00:15.887Z,22.40
2022-09-06T00:02:44.059Z,22.40
2022-09-06T00:05:12.785Z,22.50
2022-09-06T00:07:40.554Z,22.40
2022-09-06T00:10:09.253Z,22.40
2022-09-06T00:12:37.265Z,22.40
2022-09-06T00:15:05.649Z,22.40
2022-09-06T00:17:33.827Z,22.40
2022-09-06T00:20:01.849Z,22.40
2022-09-06T00:22:29.440Z,22.40
2022-09-06T00:24:57.473Z,22.40
2022-09-06T00:27:25.075Z,22.40
2022-09-06T00:29:53.019Z,22.40
2022-09-06T00:32:20.643Z,22.40
2022-09-06T00:34:48.587Z,22.40
2022-09-06T00:37:16.212Z,22.40
2022-09-06T00:39:44.240Z,22.40
2022-09-06T00:42:12.905Z,22.30
2022-09-06T00:44:41.497Z,22.30
2022-09-06T00:47:09.640Z,22.30
2022-09-06T00:49:44.136Z,22.20
2022-09-06T00:52:12.586Z,22.20
2022-09-06T00:54:40.612Z,22.20
2022-09-06T00:57:08.602Z,22.20
2022-09-06T00:59:38.160Z,22.20
2022-09-06T01:02:06.973Z,22.20
2022-09-06T01:04:34.968Z,22.10
2022-09-06T01:07:02.543Z,22.20
2022-09-06T01:09:30.144Z,22.10
2022-09-06T01:11:57.755Z,22.10
2022-09-06T01:14:45.661Z,22.10
2022-09-06T01:17:22.440Z,22.10
2022-09-06T01:20:10.469Z,22.10
2022-09-06T01:22:58.821Z,22.00
2022-09-06T01:26:02.369Z,22.00
2022-09-06T01:28:48.893Z,22.00
2022-09-06T01:31:35.273Z,22.00
2022-09-06T01:34:08.934Z,21.90
2022-09-06T01:36:54.417Z,21.90
2022-09-06T01:39:29.354Z,21.90
2022-09-06T01:41:59.086Z,21.80
2022-09-06T01:44:28.925Z,21.80
2022-09-06T01:47:03.483Z,21.80
2022-09-06T01:49:50.252Z,21.80
2022-09-06T01:52:21.225Z,21.70
2022-09-06T01:54:49.134Z,21.70
2022-09-06T01:57:19.855Z,21.70
2022-09-06T01:59:47.448Z,21.70
2022-09-06T02:02:21.628Z,21.70
2022-09-06T02:05:05.022Z,21.60
2022-09-06T02:07:34.055Z,21.60
2022-09-06T02:10:16.012Z,21.60
2022-09-06T02:12:45.951Z,21.60
2022-09-06T02:15:22.948Z,21.50
2022-09-06T02:17:57.035Z,21.50
2022-09-06T02:20:26.456Z,21.50
2022-09-06T02:22:54.829Z,21.50
2022-09-06T02:25:25.648Z,21.50
2022-09-06T02:27:53.732Z,21.50
2022-09-06T02:30:22.351Z,21.50
2022-09-06T02:33:02.728Z,21.50
2022-09-06T02:35:30.870Z,21.40
2022-09-06T02:37:58.517Z,21.40
2022-09-06T02:40:26.216Z,21.40
2022-09-06T02:42:54.245Z,21.40
2022-09-06T02:45:22.165Z,21.40
2022-09-06T02:47:49.840Z,21.40
2022-09-06T02:50:17.760Z,21.30
2022-09-06T02:52:45.719Z,21.30
2022-09-06T02:55:13.326Z,21.20
2022-09-06T02:57:40.930Z,21.20
2022-09-06T03:00:08.846Z,21.20
2022-09-06T03:02:36.522Z,21.20
2022-09-06T03:05:04.575Z,21.20
2022-09-06T03:07:32.171Z,21.20
2022-09-06T03:10:00.446Z,21.10
2022-09-06T03:12:28.063Z,21.10
2022-09-06T03:14:56.638Z,21.10
2022-09-06T03:17:24.319Z,21.10
2022-09-06T03:19:52.426Z,21.10
2022-09-06T03:22:20.038Z,21.10
2022-09-06T03:24:49.183Z,21.00
2022-09-06T03:27:16.783Z,21.00
2022-09-06T03:29:44.717Z,21.00
2022-09-06T03:32:12.356Z,21.00
2022-09-06T03:34:40.355Z,21.00
2022-09-06T03:37:08.043Z,21.00
2022-09-06T03:39:36.020Z,21.00
2022-09-06T03:42:03.788Z,21.00
2022-09-06T03:44:31.747Z,20.90
2022-09-06T03:46:59.611Z,20.90
2022-09-06T03:49:27.868Z,21.00
2022-09-06T03:51:55.473Z,20.90
2022-09-06T03:54:24.716Z,20.90
2022-09-06T03:56:52.420Z,20.90
2022-09-06T03:59:20.701Z,20.90
2022-09-06T04:01:48.314Z,20.80
2022-09-06T04:04:16.259Z,20.80
2022-09-06T04:06:43.865Z,20.80
2022-09-06T04:09:12.617Z,20.80
2022-09-06T04:11:40.644Z,20.80
2022-09-06T04:14:10.714Z,20.80
2022-09-06T04:16:38.400Z,20.80
2022-09-06T04:19:06.337Z,20.80
2022-09-06T04:21:33.931Z,20.80
2022-09-06T04:24:01.855Z,20.80
2022-09-06T04:26:29.499Z,20.80
2022-09-06T04:28:57.459Z,20.80
2022-09-06T04:31:25.238Z,20.80
2022-09-06T04:33:53.198Z,20.80
2022-09-06T04:36:20.810Z,20.80
2022-09-06T04:38:48.787Z,20.80
2022-09-06T04:41:17.342Z,20.70
2022-09-06T04:43:45.447Z,20.70
2022-09-06T04:46:13.086Z,20.70
2022-09-06T04:48:41.039Z,20.70
2022-09-06T04:51:08.732Z,20.70
2022-09-06T04:53:36.646Z,20.70
2022-09-06T04:56:04.288Z,20.60
2022-09-06T04:58:32.175Z,20.60
2022-09-06T05:00:59.878Z,20.60
2022-09-06T05:03:27.510Z,20.60
2022-09-06T05:06:04.663Z,20.50
2022-09-06T05:08:32.626Z,20.50
2022-09-06T05:11:00.229Z,20.50
2022-09-06T05:13:28.153Z,20.50
2022-09-06T05:15:56.144Z,20.50
2022-09-06T05:18:24.077Z,20.50
2022-09-06T05:20:55.210Z,20.50
2022-09-06T05:23:23.640Z,20.40
2022-09-06T05:25:51.261Z,20.40
2022-09-06T05:28:19.529Z,20.40
2022-09-06T05:30:47.625Z,20.40
2022-09-06T05:33:20.476Z,20.40
2022-09-06T05:35:48.364Z,20.40
2022-09-06T05:38:16.685Z,20.40
2022-09-06T05:40:44.304Z,20.40
2022-09-06T05:43:12.259Z,20.40
2022-09-06T05:45:39.960Z,20.40
2022-09-06T05:48:08.857Z,20.40
2022-09-06T05:50:36.495Z,20.40
2022-09-06T05:53:05.329Z,20.40
2022-09-06T05:55:32.927Z,20.40
2022-09-06T05:58:00.863Z,20.40
2022-09-06T06:00:28.599Z,20.40
2022-09-06T06:02:56.526Z,20.40
2022-09-06T06:05:24.396Z,20.40
2022-09-06T06:07:52.367Z,20.40
2022-09-06T06:10:19.955Z,20.40
2022-09-06T06:12:47.883Z,20.40
2022-09-06T06:15:15.575Z,20.40
2022-09-06T06:17:43.504Z,20.50
2022-09-06T06:20:11.184Z,20.50
2022-09-06T06:22:39.283Z,20.50
2022-09-06T06:25:07.045Z,20.50
2022-09-06T06:27:37.377Z,20.50
2022-09-06T06:30:05.216Z,20.50
2022-09-06T06:32:33.211Z,20.50
2022-09-06T06:35:00.832Z,20.60
2022-09-06T06:37:29.229Z,20.50
2022-09-06T06:39:56.996Z,20.50
2022-09-06T06:42:25.085Z,20.40
2022-09-06T06:44:53.235Z,20.40
2022-09-06T06:47:21.526Z,20.40
2022-09-06T06:49:49.281Z,20.50
2022-09-06T06:52:17.317Z,20.50
2022-09-06T06:54:45.069Z,20.50
2022-09-06T06:57:13.013Z,20.60
2022-09-06T06:59:40.796Z,20.60
2022-09-06T07:02:08.819Z,20.70
2022-09-06T07:04:36.448Z,20.80
2022-09-06T07:12:41.149Z,21.10
2022-09-06T07:15:09.147Z,21.20
2022-09-06T07:17:37.114Z,21.30
2022-09-06T07:22:40.558Z,21.50
2022-09-06T07:25:09.158Z,21.60
2022-09-06T07:27:52.548Z,21.70
2022-09-06T07:30:20.872Z,21.80
2022-09-06T07:32:49.183Z,21.90
2022-09-06T07:35:17.211Z,21.90
2022-09-06T07:37:45.123Z,22.00
2022-09-06T07:40:12.829Z,22.00
2022-09-06T07:42:40.566Z,22.10
2022-09-06T07:45:08.495Z,22.10
2022-09-06T07:53:15.521Z,22.10
2022-09-06T07:55:58.825Z,22.20
2022-09-06T07:58:26.549Z,22.20
2022-09-06T08:00:54.317Z,22.20
2022-09-06T08:03:22.473Z,22.20
2022-09-06T08:11:31.768Z,22.30
2022-09-06T08:14:00.450Z,22.30
2022-09-06T08:16:28.950Z,22.30
2022-09-06T08:18:58.187Z,22.30
2022-09-06T08:21:27.425Z,22.30
2022-09-06T08:23:57.549Z,22.40
2022-09-06T08:26:25.878Z,22.40
2022-09-06T08:28:55.007Z,22.40
2022-09-06T08:31:22.790Z,22.50
2022-09-06T08:33:50.842Z,22.50
2022-09-06T08:36:19.470Z,22.60
2022-09-06T08:38:47.546Z,22.60
2022-09-06T08:41:15.166Z,22.60
2022-09-06T08:43:52.143Z,22.70
2022-09-06T08:46:40.496Z,22.70
2022-09-06T08:49:08.703Z,22.70
2022-09-06T08:51:55.171Z,22.80
2022-09-06T08:54:29.980Z,22.80
2022-09-06T08:57:06.860Z,22.90
2022-09-06T08:59:39.684Z,23.00
2022-09-06T09:02:11.877Z,23.00
2022-09-06T09:04:42.214Z,23.10
2022-09-06T09:07:15.970Z,23.10
2022-09-06T09:09:43.667Z,23.20
2022-09-06T09:12:12.811Z,23.20
2022-09-06T09:15:05.823Z,23.30
2022-09-06T09:17:36.391Z,23.30
2022-09-06T09:20:04.955Z,23.40
2022-09-06T09:22:32.623Z,23.40
2022-09-06T09:25:01.080Z,23.50
2022-09-06T09:27:29.220Z,23.50
2022-09-06T09:32:47.525Z,23.70
2022-09-06T09:35:30.932Z,23.80
2022-09-06T09:38:07.860Z,23.80
2022-09-06T09:40:43.240Z,23.90
2022-09-06T09:43:22.312Z,23.90
2022-09-06T09:46:09.652Z,24.00
2022-09-06T09:48:38.045Z,24.10
2022-09-06T09:51:27.076Z,24.20
2022-09-06T09:53:59.987Z,24.30
2022-09-06T09:56:34.361Z,24.30
2022-09-06T09:59:03.726Z,24.40
2022-09-06T10:01:32.981Z,24.50
2022-09-06T10:07:09.548Z,24.70
2022-09-06T10:09:39.673Z,24.80
2022-09-06T10:12:07.345Z,24.90
2022-09-06T10:14:43.571Z,24.90
2022-09-06T10:17:19.541Z,25.00
2022-09-06T10:19:48.423Z,25.10
2022-09-06T10:22:15.994Z,25.20
2022-09-06T10:24:46.898Z,25.40
2022-09-06T10:27:16.005Z,25.40
2022-09-06T10:29:53.229Z,25.50
2022-09-06T10:32:25.641Z,25.70
2022-09-06T10:34:58.163Z,25.80
2022-09-06T10:37:44.623Z,25.90
2022-09-06T10:40:13.449Z,26.00
2022-09-06T10:42:52.679Z,26.00
2022-09-06T10:45:20.666Z,26.10
2022-09-06T10:47:59.456Z,26.20
2022-09-06T10:50:30.370Z,26.30
2022-09-06T10:53:02.377Z,26.40
2022-09-06T10:55:32.451Z,26.50
2022-09-06T10:58:20.403Z,26.60
